sensor_id;sensor_type;location;lat;lon;timestamp;pressure;altitude;pressure_sealevel;temperature;humidity
50702;BME280;36670;50.094;8.496;2022-07-09T00:01:00;101487.31;;;18.79;59.69
50702;BME280;36670;50.094;8.496;2022-07-09T00:03:25;101496.56;;;18.74;59.69
50702;BME280;36670;50.094;8.496;2022-07-09T00:05:51;101495.16;;;18.82;59.15
50702;BME280;36670;50.094;8.496;2022-07-09T00:08:16;101493.22;;;18.92;58.79
50702;BME280;36670;50.094;8.496;2022-07-09T00:10:41;101487.34;;;18.99;58.00
50702;BME280;36670;50.094;8.496;2022-07-09T00:13:07;101484.56;;;19.04;58.44
50702;BME280;36670;50.094;8.496;2022-07-09T00:15:32;101485.97;;;19.07;58.12
50702;BME280;36670;50.094;8.496;2022-07-09T00:17:58;101482.03;;;18.92;58.49
50702;BME280;36670;50.094;8.496;2022-07-09T00:20:23;101476.44;;;18.87;58.74
50702;BME280;36670;50.094;8.496;2022-07-09T00:22:49;101480.91;;;18.93;58.65
50702;BME280;36670;50.094;8.496;2022-07-09T00:25:14;101466.63;;;18.95;58.49
50702;BME280;36670;50.094;8.496;2022-07-09T00:27:39;101474.47;;;18.98;58.16
50702;BME280;36670;50.094;8.496;2022-07-09T00:30:05;101469.16;;;19.02;58.37
50702;BME280;36670;50.094;8.496;2022-07-09T00:32:30;101470.00;;;19.07;57.83
50702;BME280;36670;50.094;8.496;2022-07-09T00:34:56;101473.38;;;19.04;57.90
50702;BME280;36670;50.094;8.496;2022-07-09T00:37:21;101470.00;;;19.07;58.14
50702;BME280;36670;50.094;8.496;2022-07-09T00:39:46;101468.59;;;19.00;58.29
50702;BME280;36670;50.094;8.496;2022-07-09T00:42:12;101478.13;;;18.93;57.83
50702;BME280;36670;50.094;8.496;2022-07-09T00:44:38;101471.69;;;18.93;58.38
50702;BME280;36670;50.094;8.496;2022-07-09T00:47:05;101471.94;;;18.97;57.94
50702;BME280;36670;50.094;8.496;2022-07-09T00:49:31;101464.97;;;18.99;58.27
50702;BME280;36670;50.094;8.496;2022-07-09T00:51:58;101468.31;;;18.96;58.23
50702;BME280;36670;50.094;8.496;2022-07-09T00:54:24;101468.34;;;19.01;58.26
50702;BME280;36670;50.094;8.496;2022-07-09T00:56:53;101463.00;;;19.00;57.98
50702;BME280;36670;50.094;8.496;2022-07-09T00:59:21;101462.16;;;18.94;58.38
50702;BME280;36670;50.094;8.496;2022-07-09T01:01:46;101463.53;;;18.86;58.29
50702;BME280;36670;50.094;8.496;2022-07-09T01:04:13;101456.81;;;18.82;58.78
50702;BME280;36670;50.094;8.496;2022-07-09T01:06:39;101460.19;;;18.79;58.69
50702;BME280;36670;50.094;8.496;2022-07-09T01:09:04;101449.53;;;18.66;59.06
50702;BME280;36670;50.094;8.496;2022-07-09T01:11:30;101460.72;;;18.60;59.31
50702;BME280;36670;50.094;8.496;2022-07-09T01:13:55;101455.97;;;18.56;59.76
50702;BME280;36670;50.094;8.496;2022-07-09T01:16:21;101449.25;;;18.52;58.92
50702;BME280;36670;50.094;8.496;2022-07-09T01:18:47;101455.69;;;18.47;59.32
50702;BME280;36670;50.094;8.496;2022-07-09T01:21:14;101447.28;;;18.27;59.84
50702;BME280;36670;50.094;8.496;2022-07-09T01:23:39;101440.84;;;18.26;59.89
50702;BME280;36670;50.094;8.496;2022-07-09T01:26:06;101444.75;;;18.25;60.15
50702;BME280;36670;50.094;8.496;2022-07-09T01:28:31;101438.59;;;18.23;59.84
50702;BME280;36670;50.094;8.496;2022-07-09T01:30:57;101441.41;;;18.18;59.99
50702;BME280;36670;50.094;8.496;2022-07-09T01:33:22;101441.06;;;18.09;60.63
50702;BME280;36670;50.094;8.496;2022-07-09T01:35:47;101435.75;;;18.07;60.38
50702;BME280;36670;50.094;8.496;2022-07-09T01:38:13;101436.59;;;18.03;60.32
50702;BME280;36670;50.094;8.496;2022-07-09T01:40:38;101434.09;;;18.01;60.64
50702;BME280;36670;50.094;8.496;2022-07-09T01:43:04;101437.16;;;18.00;60.48
50702;BME280;36670;50.094;8.496;2022-07-09T01:45:32;101437.44;;;18.03;60.63
50702;BME280;36670;50.094;8.496;2022-07-09T01:47:57;101439.41;;;18.03;60.71
50702;BME280;36670;50.094;8.496;2022-07-09T01:50:23;101428.78;;;18.00;60.99
50702;BME280;36670;50.094;8.496;2022-07-09T01:52:48;101432.63;;;17.88;61.54
50702;BME280;36670;50.094;8.496;2022-07-09T01:55:14;101426.19;;;17.88;61.17
50702;BME280;36670;50.094;8.496;2022-07-09T01:57:39;101427.59;;;17.90;61.44
50702;BME280;36670;50.094;8.496;2022-07-09T02:00:05;101423.34;;;17.83;61.37
50702;BME280;36670;50.094;8.496;2022-07-09T02:02:31;101427.28;;;17.87;60.93
50702;BME280;36670;50.094;8.496;2022-07-09T02:04:56;101424.75;;;17.85;61.07
50702;BME280;36670;50.094;8.496;2022-07-09T02:07:22;101419.44;;;17.73;62.31
50702;BME280;36670;50.094;8.496;2022-07-09T02:09:47;101423.91;;;17.74;61.68
50702;BME280;36670;50.094;8.496;2022-07-09T02:12:15;101419.47;;;17.79;62.42
50702;BME280;36670;50.094;8.496;2022-07-09T02:14:40;101416.09;;;17.77;62.11
50702;BME280;36670;50.094;8.496;2022-07-09T02:17:05;101410.16;;;17.63;63.37
50702;BME280;36670;50.094;8.496;2022-07-09T02:19:31;101404.31;;;17.64;62.53
50702;BME280;36670;50.094;8.496;2022-07-09T02:21:56;101413.00;;;17.68;63.17
50702;BME280;36670;50.094;8.496;2022-07-09T02:24:21;101410.13;;;17.57;63.57
50702;BME280;36670;50.094;8.496;2022-07-09T02:26:47;101409.28;;;17.47;63.84
50702;BME280;36670;50.094;8.496;2022-07-09T02:29:12;101403.13;;;17.55;63.08
50702;BME280;36670;50.094;8.496;2022-07-09T02:31:37;101393.69;;;17.61;63.03
50702;BME280;36670;50.094;8.496;2022-07-09T02:34:03;101396.75;;;17.60;62.98
50702;BME280;36670;50.094;8.496;2022-07-09T02:36:28;101397.06;;;17.68;62.54
50702;BME280;36670;50.094;8.496;2022-07-09T02:38:53;101396.78;;;17.65;62.83
50702;BME280;36670;50.094;8.496;2022-07-09T02:41:19;101410.13;;;17.57;62.95
50702;BME280;36670;50.094;8.496;2022-07-09T02:43:44;101398.69;;;17.59;62.85
50702;BME280;36670;50.094;8.496;2022-07-09T02:46:10;101395.91;;;17.59;62.73
50702;BME280;36670;50.094;8.496;2022-07-09T02:48:36;101405.94;;;17.55;63.08
50702;BME280;36670;50.094;8.496;2022-07-09T02:51:01;101401.50;;;17.54;62.81
50702;BME280;36670;50.094;8.496;2022-07-09T02:53:28;101402.88;;;17.51;63.00
50702;BME280;36670;50.094;8.496;2022-07-09T02:55:53;101406.50;;;17.47;63.17
50702;BME280;36670;50.094;8.496;2022-07-09T02:58:19;101402.56;;;17.43;63.43
50702;BME280;36670;50.094;8.496;2022-07-09T03:00:44;101404.72;;;17.35;63.90
50702;BME280;36670;50.094;8.496;2022-07-09T03:03:10;101398.59;;;17.33;63.56
50702;BME280;36670;50.094;8.496;2022-07-09T03:05:35;101398.59;;;17.33;63.62
50702;BME280;36670;50.094;8.496;2022-07-09T03:08:01;101408.66;;;17.34;63.95
50702;BME280;36670;50.094;8.496;2022-07-09T03:10:27;101400.84;;;17.36;63.93
50702;BME280;36670;50.094;8.496;2022-07-09T03:12:53;101400.88;;;17.42;63.74
50702;BME280;36670;50.094;8.496;2022-07-09T03:15:18;101395.84;;;17.44;64.08
50702;BME280;36670;50.094;8.496;2022-07-09T03:17:45;101396.16;;;17.47;63.58
50702;BME280;36670;50.094;8.496;2022-07-09T03:20:11;101389.19;;;17.50;63.54
50702;BME280;36670;50.094;8.496;2022-07-09T03:22:37;101389.19;;;17.55;63.53
50702;BME280;36670;50.094;8.496;2022-07-09T03:25:03;101386.69;;;17.58;63.38
50702;BME280;36670;50.094;8.496;2022-07-09T03:27:29;101383.06;;;17.63;63.65
50702;BME280;36670;50.094;8.496;2022-07-09T03:29:54;101388.66;;;17.58;64.05
50702;BME280;36670;50.094;8.496;2022-07-09T03:32:20;101382.50;;;17.56;64.17
50702;BME280;36670;50.094;8.496;2022-07-09T03:34:45;101383.94;;;17.64;63.53
50702;BME280;36670;50.094;8.496;2022-07-09T03:37:11;101383.66;;;17.75;63.76
50702;BME280;36670;50.094;8.496;2022-07-09T03:39:36;101388.16;;;17.87;63.45
50702;BME280;36670;50.094;8.496;2022-07-09T03:42:01;101387.97;;;17.99;63.05
50702;BME280;36670;50.094;8.496;2022-07-09T03:44:27;101382.41;;;18.14;62.80
50702;BME280;36670;50.094;8.496;2022-07-09T03:46:52;101381.28;;;18.25;62.71
50702;BME280;36670;50.094;8.496;2022-07-09T03:49:17;101386.06;;;18.30;62.14
50702;BME280;36670;50.094;8.496;2022-07-09T03:51:43;101383.81;;;18.32;62.05
50702;BME280;36670;50.094;8.496;2022-07-09T03:54:09;101379.91;;;18.33;62.21
50702;BME280;36670;50.094;8.496;2022-07-09T03:56:35;101379.63;;;18.45;62.13
50702;BME280;36670;50.094;8.496;2022-07-09T03:59:00;101380.75;;;18.70;61.67
50702;BME280;36670;50.094;8.496;2022-07-09T04:01:26;101377.09;;;19.05;61.01
50702;BME280;36670;50.094;8.496;2022-07-09T04:03:51;101385.84;;;19.54;59.81
50702;BME280;36670;50.094;8.496;2022-07-09T04:06:19;101373.34;;;19.96;58.74
50702;BME280;36670;50.094;8.496;2022-07-09T04:08:45;101371.94;;;20.33;58.16
50702;BME280;36670;50.094;8.496;2022-07-09T04:11:11;101378.16;;;20.64;57.33
50702;BME280;36670;50.094;8.496;2022-07-09T04:13:36;101375.19;;;20.85;56.45
50702;BME280;36670;50.094;8.496;2022-07-09T04:16:01;101378.47;;;20.92;56.08
50702;BME280;36670;50.094;8.496;2022-07-09T04:18:27;101381.19;;;20.73;55.90
50702;BME280;36670;50.094;8.496;2022-07-09T04:20:52;101369.38;;;20.42;56.23
50702;BME280;36670;50.094;8.496;2022-07-09T04:23:19;101376.41;;;20.00;57.30
50702;BME280;36670;50.094;8.496;2022-07-09T04:25:45;101373.06;;;19.98;57.65
50702;BME280;36670;50.094;8.496;2022-07-09T04:28:10;101378.53;;;20.18;57.92
50702;BME280;36670;50.094;8.496;2022-07-09T04:30:36;101373.69;;;20.58;57.00
50702;BME280;36670;50.094;8.496;2022-07-09T04:33:01;101373.13;;;21.20;56.47
50702;BME280;36670;50.094;8.496;2022-07-09T04:35:26;101382.00;;;21.76;55.49
50702;BME280;36670;50.094;8.496;2022-07-09T04:37:52;101370.63;;;22.05;53.88
50702;BME280;36670;50.094;8.496;2022-07-09T04:40:17;101363.31;;;22.23;53.38
50702;BME280;36670;50.094;8.496;2022-07-09T04:42:43;101366.31;;;22.79;52.39
50702;BME280;36670;50.094;8.496;2022-07-09T04:45:08;101381.13;;;23.45;51.13
50702;BME280;36670;50.094;8.496;2022-07-09T04:47:34;101368.72;;;24.33;49.43
50702;BME280;36670;50.094;8.496;2022-07-09T04:49:59;101362.38;;;25.13;47.62
50702;BME280;36670;50.094;8.496;2022-07-09T04:52:24;101370.91;;;25.71;46.04
50702;BME280;36670;50.094;8.496;2022-07-09T04:54:52;101362.97;;;26.08;45.74
50702;BME280;36670;50.094;8.496;2022-07-09T04:57:17;101366.81;;;26.47;45.16
50702;BME280;36670;50.094;8.496;2022-07-09T04:59:43;101362.56;;;26.88;43.93
50702;BME280;36670;50.094;8.496;2022-07-09T05:02:08;101361.91;;;26.65;43.73
50702;BME280;36670;50.094;8.496;2022-07-09T05:04:33;101354.81;;;26.50;43.19
50702;BME280;36670;50.094;8.496;2022-07-09T05:06:59;101358.78;;;26.58;43.30
50702;BME280;36670;50.094;8.496;2022-07-09T05:09:24;101353.69;;;26.25;42.73
50702;BME280;36670;50.094;8.496;2022-07-09T05:11:49;101357.38;;;25.42;44.00
50702;BME280;36670;50.094;8.496;2022-07-09T05:14:14;101354.84;;;24.68;45.75
50702;BME280;36670;50.094;8.496;2022-07-09T05:16:40;101354.72;;;24.28;46.30
50702;BME280;36670;50.094;8.496;2022-07-09T05:19:10;101353.69;;;24.24;47.25
50702;BME280;36670;50.094;8.496;2022-07-09T05:21:36;101356.00;;;24.45;47.74
50702;BME280;36670;50.094;8.496;2022-07-09T05:24:02;101359.59;;;24.82;47.55
50702;BME280;36670;50.094;8.496;2022-07-09T05:26:27;101355.28;;;25.25;47.43
50702;BME280;36670;50.094;8.496;2022-07-09T05:28:54;101359.31;;;26.34;45.38
50702;BME280;36670;50.094;8.496;2022-07-09T05:31:20;101355.69;;;26.98;44.25
50702;BME280;36670;50.094;8.496;2022-07-09T05:33:45;101356.25;;;27.60;42.77
50702;BME280;36670;50.094;8.496;2022-07-09T05:36:11;101356.91;;;27.87;42.29
50702;BME280;36670;50.094;8.496;2022-07-09T05:38:36;101350.06;;;27.88;41.75
50702;BME280;36670;50.094;8.496;2022-07-09T05:41:01;101352.22;;;28.12;41.27
50702;BME280;36670;50.094;8.496;2022-07-09T05:43:26;101359.03;;;28.32;40.64
50702;BME280;36670;50.094;8.496;2022-07-09T05:45:52;101348.34;;;28.50;40.35
50702;BME280;36670;50.094;8.496;2022-07-09T05:48:17;101345.31;;;29.14;39.92
50702;BME280;36670;50.094;8.496;2022-07-09T05:50:42;101344.44;;;30.00;38.46
50702;BME280;36670;50.094;8.496;2022-07-09T05:53:08;101348.94;;;30.57;37.59
50702;BME280;36670;50.094;8.496;2022-07-09T05:55:34;101350.41;;;31.11;36.72
50702;BME280;36670;50.094;8.496;2022-07-09T05:57:59;101351.53;;;31.74;35.63
50702;BME280;36670;50.094;8.496;2022-07-09T06:00:24;101348.72;;;32.33;34.59
50702;BME280;36670;50.094;8.496;2022-07-09T06:02:50;101349.06;;;32.71;33.90
50702;BME280;36670;50.094;8.496;2022-07-09T06:05:15;101348.19;;;32.47;32.96
50702;BME280;36670;50.094;8.496;2022-07-09T06:07:44;101354.06;;;32.54;33.29
50702;BME280;36670;50.094;8.496;2022-07-09T06:10:10;101358.94;;;31.95;32.92
50702;BME280;36670;50.094;8.496;2022-07-09T06:12:37;101355.88;;;31.68;33.68
50702;BME280;36670;50.094;8.496;2022-07-09T06:15:03;101355.03;;;31.68;33.34
50702;BME280;36670;50.094;8.496;2022-07-09T06:17:28;101354.97;;;31.48;33.63
50702;BME280;36670;50.094;8.496;2022-07-09T06:19:54;101350.53;;;30.71;34.32
50702;BME280;36670;50.094;8.496;2022-07-09T06:22:19;101348.25;;;30.92;34.91
50702;BME280;36670;50.094;8.496;2022-07-09T06:24:44;101354.31;;;30.91;34.14
50702;BME280;36670;50.094;8.496;2022-07-09T06:27:10;101357.53;;;29.51;35.92
50702;BME280;36670;50.094;8.496;2022-07-09T06:29:36;101368.13;;;28.80;36.98
50702;BME280;36670;50.094;8.496;2022-07-09T06:32:01;101366.88;;;28.35;38.25
50702;BME280;36670;50.094;8.496;2022-07-09T06:34:26;101360.38;;;28.68;38.62
50702;BME280;36670;50.094;8.496;2022-07-09T06:36:52;101354.13;;;28.75;38.56
50702;BME280;36670;50.094;8.496;2022-07-09T06:39:17;101355.25;;;28.61;38.50
50702;BME280;36670;50.094;8.496;2022-07-09T06:42:07;101361.44;;;28.09;39.42
50702;BME280;36670;50.094;8.496;2022-07-09T06:44:33;101362.16;;;27.76;39.49
50702;BME280;36670;50.094;8.496;2022-07-09T06:46:59;101361.72;;;27.86;40.62
50702;BME280;36670;50.094;8.496;2022-07-09T06:49:24;101366.56;;;27.65;39.49
50702;BME280;36670;50.094;8.496;2022-07-09T06:51:49;101364.09;;;26.77;40.02
50702;BME280;36670;50.094;8.496;2022-07-09T06:54:15;101364.44;;;25.88;42.77
50702;BME280;36670;50.094;8.496;2022-07-09T06:56:40;101366.47;;;26.31;43.10
50702;BME280;36670;50.094;8.496;2022-07-09T06:59:05;101360.06;;;26.87;42.90
50702;BME280;36670;50.094;8.496;2022-07-09T07:01:31;101360.41;;;26.85;42.68
50702;BME280;36670;50.094;8.496;2022-07-09T07:03:56;101367.88;;;27.37;41.89
50702;BME280;36670;50.094;8.496;2022-07-09T07:06:21;101355.91;;;26.84;42.52
50702;BME280;36670;50.094;8.496;2022-07-09T07:08:47;101360.09;;;26.61;42.39
50702;BME280;36670;50.094;8.496;2022-07-09T07:11:12;101368.81;;;26.20;42.87
50702;BME280;36670;50.094;8.496;2022-07-09T07:13:37;101369.50;;;26.09;43.13
50702;BME280;36670;50.094;8.496;2022-07-09T07:16:03;101372.41;;;25.86;43.84
50702;BME280;36670;50.094;8.496;2022-07-09T07:18:28;101360.00;;;26.04;43.54
50702;BME280;36670;50.094;8.496;2022-07-09T07:20:54;101369.78;;;25.98;43.68
50702;BME280;36670;50.094;8.496;2022-07-09T07:23:19;101364.44;;;25.79;43.48
50702;BME280;36670;50.094;8.496;2022-07-09T07:25:45;101367.59;;;25.78;43.92
50702;BME280;36670;50.094;8.496;2022-07-09T07:28:10;101379.66;;;25.43;43.80
50702;BME280;36670;50.094;8.496;2022-07-09T07:30:36;101376.41;;;25.76;44.76
50702;BME280;36670;50.094;8.496;2022-07-09T07:33:02;101371.09;;;26.01;43.52
50702;BME280;36670;50.094;8.496;2022-07-09T07:35:27;101358.16;;;26.17;42.99
50702;BME280;36670;50.094;8.496;2022-07-09T07:37:53;101359.94;;;25.78;42.95
50702;BME280;36670;50.094;8.496;2022-07-09T07:40:18;101350.66;;;26.04;42.95
50702;BME280;36670;50.094;8.496;2022-07-09T07:42:44;101359.31;;;26.43;43.17
50702;BME280;36670;50.094;8.496;2022-07-09T07:45:10;101354.84;;;26.15;43.87
50702;BME280;36670;50.094;8.496;2022-07-09T07:47:35;101354.00;;;26.15;42.19
50702;BME280;36670;50.094;8.496;2022-07-09T07:50:01;101346.50;;;26.19;42.02
50702;BME280;36670;50.094;8.496;2022-07-09T07:52:26;101353.31;;;26.44;41.64
50702;BME280;36670;50.094;8.496;2022-07-09T07:54:51;101356.44;;;25.90;41.62
50702;BME280;36670;50.094;8.496;2022-07-09T07:57:16;101351.41;;;25.52;41.71
50702;BME280;36670;50.094;8.496;2022-07-09T07:59:42;101358.41;;;25.14;42.78
50702;BME280;36670;50.094;8.496;2022-07-09T08:02:07;101354.13;;;24.85;43.45
50702;BME280;36670;50.094;8.496;2022-07-09T08:04:33;101352.06;;;24.77;44.25
50702;BME280;36670;50.094;8.496;2022-07-09T08:06:58;101352.28;;;24.81;45.38
50702;BME280;36670;50.094;8.496;2022-07-09T08:09:23;101352.22;;;24.72;44.83
50702;BME280;36670;50.094;8.496;2022-07-09T08:11:49;101354.38;;;24.66;46.21
50702;BME280;36670;50.094;8.496;2022-07-09T08:14:14;101357.63;;;25.22;44.96
50702;BME280;36670;50.094;8.496;2022-07-09T08:16:39;101339.97;;;25.75;44.66
50702;BME280;36670;50.094;8.496;2022-07-09T08:19:05;101340.66;;;25.98;43.24
50702;BME280;36670;50.094;8.496;2022-07-09T08:21:30;101347.34;;;26.11;43.98
50702;BME280;36670;50.094;8.496;2022-07-09T08:23:56;101352.50;;;26.35;42.21
50702;BME280;36670;50.094;8.496;2022-07-09T08:26:23;101348.47;;;26.71;41.27
50702;BME280;36670;50.094;8.496;2022-07-09T08:28:50;101348.81;;;25.99;42.01
50702;BME280;36670;50.094;8.496;2022-07-09T08:31:16;101351.97;;;26.41;41.58
50702;BME280;36670;50.094;8.496;2022-07-09T08:33:42;101334.66;;;25.82;42.74
50702;BME280;36670;50.094;8.496;2022-07-09T08:36:08;101334.50;;;25.78;42.89
50702;BME280;36670;50.094;8.496;2022-07-09T08:38:33;101328.53;;;26.06;43.85
50702;BME280;36670;50.094;8.496;2022-07-09T08:41:00;101331.16;;;26.46;42.98
50702;BME280;36670;50.094;8.496;2022-07-09T08:43:26;101335.97;;;26.54;42.16
50702;BME280;36670;50.094;8.496;2022-07-09T08:45:54;101327.94;;;26.74;42.03
50702;BME280;36670;50.094;8.496;2022-07-09T08:48:20;101322.09;;;27.18;42.69
50702;BME280;36670;50.094;8.496;2022-07-09T08:50:48;101330.41;;;27.23;40.19
50702;BME280;36670;50.094;8.496;2022-07-09T08:53:16;101328.91;;;26.87;40.46
50702;BME280;36670;50.094;8.496;2022-07-09T08:55:42;101323.94;;;26.66;40.44
50702;BME280;36670;50.094;8.496;2022-07-09T08:58:17;101327.03;;;26.17;41.28
50702;BME280;36670;50.094;8.496;2022-07-09T09:00:42;101328.19;;;26.08;42.44
50702;BME280;36670;50.094;8.496;2022-07-09T09:03:08;101324.84;;;26.23;42.67
50702;BME280;36670;50.094;8.496;2022-07-09T09:05:33;101320.19;;;26.01;43.19
50702;BME280;36670;50.094;8.496;2022-07-09T09:07:59;101320.16;;;26.53;42.13
50702;BME280;36670;50.094;8.496;2022-07-09T09:10:26;101300.38;;;26.92;42.58
50702;BME280;36670;50.094;8.496;2022-07-09T09:12:59;101312.03;;;27.29;39.98
50702;BME280;36670;50.094;8.496;2022-07-09T09:15:25;101312.47;;;26.71;40.26
50702;BME280;36670;50.094;8.496;2022-07-09T09:17:51;101317.69;;;25.82;41.51
50702;BME280;36670;50.094;8.496;2022-07-09T09:20:17;101310.06;;;25.25;42.37
50702;BME280;36670;50.094;8.496;2022-07-09T09:22:44;101307.34;;;25.02;43.81
50702;BME280;36670;50.094;8.496;2022-07-09T09:25:18;101315.31;;;25.40;44.61
50702;BME280;36670;50.094;8.496;2022-07-09T09:27:57;101303.69;;;25.94;43.42
50702;BME280;36670;50.094;8.496;2022-07-09T09:30:23;101300.66;;;26.52;42.31
50702;BME280;36670;50.094;8.496;2022-07-09T09:33:00;101301.09;;;27.19;39.67
50702;BME280;36670;50.094;8.496;2022-07-09T09:35:27;101300.56;;;27.25;38.46
50702;BME280;36670;50.094;8.496;2022-07-09T09:37:54;101287.25;;;27.17;36.97
50702;BME280;36670;50.094;8.496;2022-07-09T09:40:20;101291.91;;;26.83;37.57
50702;BME280;36670;50.094;8.496;2022-07-09T09:42:46;101293.75;;;26.88;38.57
50702;BME280;36670;50.094;8.496;2022-07-09T09:45:13;101282.41;;;27.18;39.05
50702;BME280;36670;50.094;8.496;2022-07-09T09:47:43;101288.03;;;27.56;37.86
50702;BME280;36670;50.094;8.496;2022-07-09T09:50:11;101282.19;;;27.53;37.63
50702;BME280;36670;50.094;8.496;2022-07-09T09:52:41;101286.38;;;27.25;38.81
50702;BME280;36670;50.094;8.496;2022-07-09T09:55:07;101292.88;;;26.96;39.14
50702;BME280;36670;50.094;8.496;2022-07-09T09:57:33;101286.00;;;26.58;39.47
50702;BME280;36670;50.094;8.496;2022-07-09T10:00:00;101290.72;;;26.28;39.31
50702;BME280;36670;50.094;8.496;2022-07-09T10:02:27;101279.06;;;26.30;39.43
50702;BME280;36670;50.094;8.496;2022-07-09T10:04:53;101288.69;;;26.46;39.16
50702;BME280;36670;50.094;8.496;2022-07-09T10:07:18;101278.81;;;26.70;39.95
50702;BME280;36670;50.094;8.496;2022-07-09T10:09:57;101281.28;;;27.10;38.10
50702;BME280;36670;50.094;8.496;2022-07-09T10:12:28;101276.75;;;26.79;39.03
50702;BME280;36670;50.094;8.496;2022-07-09T10:14:53;101269.41;;;26.87;38.80
50702;BME280;36670;50.094;8.496;2022-07-09T10:17:19;101271.53;;;26.99;38.04
50702;BME280;36670;50.094;8.496;2022-07-09T10:20:01;101269.13;;;27.39;37.39
50702;BME280;36670;50.094;8.496;2022-07-09T10:22:36;101265.22;;;27.74;36.93
50702;BME280;36670;50.094;8.496;2022-07-09T10:25:02;101257.47;;;28.17;37.16
50702;BME280;36670;50.094;8.496;2022-07-09T10:27:28;101257.00;;;28.15;36.70
50702;BME280;36670;50.094;8.496;2022-07-09T10:29:55;101256.41;;;28.55;36.94
50702;BME280;36670;50.094;8.496;2022-07-09T10:32:25;101249.13;;;28.91;35.18
50702;BME280;36670;50.094;8.496;2022-07-09T10:34:57;101253.25;;;28.69;35.88
50702;BME280;36670;50.094;8.496;2022-07-09T10:37:41;101241.97;;;28.48;34.65
50702;BME280;36670;50.094;8.496;2022-07-09T10:40:15;101241.63;;;27.94;35.73
50702;BME280;36670;50.094;8.496;2022-07-09T10:42:42;101240.97;;;27.98;36.13
50702;BME280;36670;50.094;8.496;2022-07-09T10:47:43;101238.75;;;27.61;36.20
50702;BME280;36670;50.094;8.496;2022-07-09T10:50:09;101232.13;;;27.78;36.55
50702;BME280;36670;50.094;8.496;2022-07-09T10:52:35;101229.78;;;28.14;36.10
50702;BME280;36670;50.094;8.496;2022-07-09T10:55:00;101219.22;;;28.35;36.15
50702;BME280;36670;50.094;8.496;2022-07-09T10:57:26;101215.31;;;28.40;35.17
50702;BME280;36670;50.094;8.496;2022-07-09T10:59:51;101216.09;;;28.16;36.01
50702;BME280;36670;50.094;8.496;2022-07-09T11:02:26;101219.16;;;27.89;36.43
50702;BME280;36670;50.094;8.496;2022-07-09T11:04:52;101219.19;;;28.23;35.95
50702;BME280;36670;50.094;8.496;2022-07-09T11:07:27;101217.78;;;28.41;35.20
50702;BME280;36670;50.094;8.496;2022-07-09T11:09:54;101219.78;;;28.29;35.32
50702;BME280;36670;50.094;8.496;2022-07-09T11:12:21;101210.16;;;28.67;34.07
50702;BME280;36670;50.094;8.496;2022-07-09T11:14:48;101198.34;;;28.19;34.95
50702;BME280;36670;50.094;8.496;2022-07-09T11:17:15;101206.94;;;28.10;36.46
50702;BME280;36670;50.094;8.496;2022-07-09T11:19:41;101198.16;;;28.61;35.37
50702;BME280;36670;50.094;8.496;2022-07-09T11:22:06;101194.25;;;28.53;34.63
50702;BME280;36670;50.094;8.496;2022-07-09T11:24:32;101180.31;;;28.85;35.27
50702;BME280;36670;50.094;8.496;2022-07-09T11:27:02;101185.50;;;28.95;34.71
50702;BME280;36670;50.094;8.496;2022-07-09T11:29:27;101185.06;;;28.69;34.74
50702;BME280;36670;50.094;8.496;2022-07-09T11:31:53;101184.72;;;28.70;35.96
50702;BME280;36670;50.094;8.496;2022-07-09T11:34:19;101178.88;;;28.91;34.47
50702;BME280;36670;50.094;8.496;2022-07-09T11:36:46;101173.75;;;29.22;34.10
50702;BME280;36670;50.094;8.496;2022-07-09T11:39:33;101177.81;;;29.49;34.16
50702;BME280;36670;50.094;8.496;2022-07-09T11:42:03;101174.09;;;29.20;33.46
50702;BME280;36670;50.094;8.496;2022-07-09T11:44:30;101163.41;;;29.70;32.65
50702;BME280;36670;50.094;8.496;2022-07-09T11:47:16;101164.75;;;29.89;31.85
50702;BME280;36670;50.094;8.496;2022-07-09T11:49:46;101177.81;;;29.90;29.89
50702;BME280;36670;50.094;8.496;2022-07-09T11:52:24;101175.63;;;29.42;31.01
50702;BME280;36670;50.094;8.496;2022-07-09T11:55:09;101167.56;;;29.20;31.47
50702;BME280;36670;50.094;8.496;2022-07-09T11:57:36;101164.44;;;28.97;31.24
50702;BME280;36670;50.094;8.496;2022-07-09T12:00:07;101166.34;;;28.92;31.99
50702;BME280;36670;50.094;8.496;2022-07-09T12:02:37;101162.75;;;28.58;31.03
50702;BME280;36670;50.094;8.496;2022-07-09T12:05:05;101164.16;;;28.15;31.60
50702;BME280;36670;50.094;8.496;2022-07-09T12:07:32;101154.22;;;28.21;31.44
50702;BME280;36670;50.094;8.496;2022-07-09T12:10:05;101158.38;;;28.36;31.81
50702;BME280;36670;50.094;8.496;2022-07-09T12:12:32;101159.69;;;28.39;32.48
50702;BME280;36670;50.094;8.496;2022-07-09T12:14:58;101158.63;;;28.31;32.04
50702;BME280;36670;50.094;8.496;2022-07-09T12:17:24;101148.91;;;28.20;32.38
50702;BME280;36670;50.094;8.496;2022-07-09T12:19:51;101154.66;;;28.11;32.15
50702;BME280;36670;50.094;8.496;2022-07-09T12:22:17;101152.09;;;28.06;33.76
50702;BME280;36670;50.094;8.496;2022-07-09T12:24:42;101147.34;;;28.22;33.25
50702;BME280;36670;50.094;8.496;2022-07-09T12:27:08;101140.03;;;28.21;32.87
50702;BME280;36670;50.094;8.496;2022-07-09T12:29:33;101129.03;;;28.20;33.15
50702;BME280;36670;50.094;8.496;2022-07-09T12:31:59;101128.94;;;28.41;31.47
50702;BME280;36670;50.094;8.496;2022-07-09T12:34:24;101121.25;;;28.78;32.43
50702;BME280;36670;50.094;8.496;2022-07-09T12:36:49;101131.97;;;28.98;32.22
50702;BME280;36670;50.094;8.496;2022-07-09T12:39:15;101122.94;;;29.08;31.98
50702;BME280;36670;50.094;8.496;2022-07-09T12:41:40;101121.03;;;28.71;31.74
50702;BME280;36670;50.094;8.496;2022-07-09T12:44:05;101120.50;;;28.57;31.85
50702;BME280;36670;50.094;8.496;2022-07-09T12:46:31;101119.09;;;28.51;32.29
50702;BME280;36670;50.094;8.496;2022-07-09T12:48:56;101115.22;;;28.68;32.37